createdAt,value
2022-11-29T00:01:16.330Z,6.62
2022-11-29T00:03:43.416Z,6.64
2022-11-29T00:06:16.625Z,6.63
2022-11-29T00:08:44.148Z,6.53
2022-11-29T00:11:41.010Z,6.51
2022-11-29T00:14:11.578Z,6.49
2022-11-29T00:16:41.024Z,6.47
2022-11-29T00:19:09.921Z,6.47
2022-11-29T00:21:37.151Z,6.45
2022-11-29T00:24:04.288Z,6.46
2022-11-29T00:26:31.335Z,6.45
2022-11-29T00:28:59.302Z,6.45
2022-11-29T00:31:31.666Z,6.41
2022-11-29T00:34:00.403Z,6.40
2022-11-29T00:36:28.036Z,6.39
2022-11-29T00:38:54.972Z,6.36
2022-11-29T00:41:22.218Z,6.37
2022-11-29T00:43:49.156Z,6.37
2022-11-29T00:46:16.081Z,6.36
2022-11-29T00:48:43.064Z,6.38
2022-11-29T00:51:10.099Z,6.37
2022-11-29T00:53:37.776Z,6.43
2022-11-29T00:56:05.938Z,6.39
2022-11-29T00:58:33.437Z,6.35
2022-11-29T01:01:00.500Z,6.35
2022-11-29T01:03:27.490Z,6.35
2022-11-29T01:06:01.303Z,6.34
2022-11-29T01:08:28.265Z,6.37
2022-11-29T01:11:10.622Z,6.35
2022-11-29T01:13:37.940Z,6.31
2022-11-29T01:16:05.924Z,6.27
2022-11-29T01:18:33.284Z,6.26
2022-11-29T01:21:02.940Z,6.23
2022-11-29T01:23:30.291Z,6.20
2022-11-29T01:25:58.085Z,6.24
2022-11-29T01:28:25.170Z,6.26
2022-11-29T01:30:52.324Z,6.26
2022-11-29T01:33:19.258Z,6.27
2022-11-29T01:35:54.370Z,6.28
2022-11-29T01:38:22.636Z,6.26
2022-11-29T01:41:07.240Z,6.21
2022-11-29T01:43:52.813Z,6.16
2022-11-29T01:46:19.713Z,6.12
2022-11-29T01:48:46.804Z,6.10
2022-11-29T01:51:14.091Z,6.06
2022-11-29T01:53:41.034Z,6.07
2022-11-29T01:56:08.296Z,6.12
2022-11-29T01:58:35.723Z,6.10
2022-11-29T02:01:02.861Z,6.06
2022-11-29T02:03:29.672Z,6.03
2022-11-29T02:05:56.477Z,6.00
2022-11-29T02:08:31.913Z,5.95
2022-11-29T02:11:01.665Z,5.91
2022-11-29T02:13:34.064Z,5.85
2022-11-29T02:16:10.367Z,5.82
2022-11-29T02:18:46.801Z,5.77
2022-11-29T02:21:30.741Z,5.77
2022-11-29T02:24:16.588Z,5.72
2022-11-29T02:26:55.616Z,5.73
2022-11-29T02:29:47.590Z,5.69
2022-11-29T02:32:52.064Z,5.66
2022-11-29T02:35:37.835Z,5.61
2022-11-29T02:38:36.354Z,5.57
2022-11-29T02:41:09.057Z,5.55
2022-11-29T02:44:13.213Z,5.58
2022-11-29T02:46:49.225Z,5.60
2022-11-29T02:49:24.744Z,5.59
2022-11-29T02:52:02.249Z,5.53
2022-11-29T02:54:55.320Z,5.46
2022-11-29T02:57:31.139Z,5.50
2022-11-29T03:00:07.236Z,5.48
2022-11-29T03:02:59.144Z,5.47
2022-11-29T03:05:32.442Z,5.46
2022-11-29T03:08:16.752Z,5.45
2022-11-29T03:11:08.162Z,5.39
2022-11-29T03:13:57.228Z,5.39
2022-11-29T03:16:43.523Z,5.38
2022-11-29T03:19:19.878Z,5.38
2022-11-29T03:22:11.996Z,5.38
2022-11-29T03:24:48.581Z,5.37
2022-11-29T03:27:28.742Z,5.35
2022-11-29T03:29:59.446Z,5.33
2022-11-29T03:32:59.141Z,5.30
2022-11-29T03:35:36.812Z,5.27
2022-11-29T03:38:16.303Z,5.25
2022-11-29T03:41:10.019Z,5.27
2022-11-29T03:43:47.201Z,5.29
2022-11-29T03:46:37.003Z,5.34
2022-11-29T03:49:11.117Z,5.36
2022-11-29T03:51:42.943Z,5.34
2022-11-29T03:54:15.153Z,5.34
2022-11-29T03:56:42.627Z,5.29
2022-11-29T03:59:40.281Z,5.27
2022-11-29T04:02:28.912Z,5.23
2022-11-29T04:05:20.193Z,5.23
2022-11-29T04:08:29.540Z,5.26
2022-11-29T04:11:18.284Z,5.23
2022-11-29T04:14:03.248Z,5.24
2022-11-29T04:16:48.135Z,5.18
2022-11-29T04:19:27.129Z,5.19
2022-11-29T04:22:22.705Z,5.17
2022-11-29T04:25:07.718Z,5.15
2022-11-29T04:27:41.451Z,5.11
2022-11-29T04:30:15.576Z,5.10
2022-11-29T04:32:48.411Z,5.08
2022-11-29T04:35:33.084Z,5.04
2022-11-29T04:38:33.577Z,5.01
2022-11-29T04:41:27.314Z,5.05
2022-11-29T04:44:32.512Z,5.06
2022-11-29T04:47:37.043Z,5.03
2022-11-29T04:50:19.082Z,5.01
2022-11-29T04:53:17.691Z,4.99
2022-11-29T04:55:59.085Z,4.94
2022-11-29T04:58:44.628Z,4.95
2022-11-29T05:01:23.672Z,4.92
2022-11-29T05:04:26.279Z,4.92
2022-11-29T05:07:00.046Z,4.94
2022-11-29T05:10:28.077Z,4.97
2022-11-29T05:13:13.479Z,4.98
2022-11-29T05:16:01.463Z,4.98
2022-11-29T05:18:34.009Z,4.97
2022-11-29T05:21:09.025Z,4.95
2022-11-29T05:24:17.153Z,4.97
2022-11-29T05:27:01.553Z,4.95
2022-11-29T05:29:48.015Z,4.94
2022-11-29T05:32:20.909Z,4.90
2022-11-29T05:34:57.885Z,4.89
2022-11-29T05:37:44.870Z,4.90
2022-11-29T05:40:48.870Z,4.87
2022-11-29T05:43:53.911Z,4.83
2022-11-29T05:46:54.507Z,4.84
2022-11-29T05:49:44.594Z,4.84
2022-11-29T05:52:31.651Z,4.89
2022-11-29T05:55:19.567Z,4.85
2022-11-29T05:58:14.728Z,4.85
2022-11-29T06:00:50.097Z,4.87
2022-11-29T06:03:25.018Z,4.88
2022-11-29T06:06:10.548Z,4.95
2022-11-29T06:08:48.796Z,4.99
2022-11-29T06:11:38.788Z,5.02
2022-11-29T06:14:25.191Z,5.04
2022-11-29T06:16:56.846Z,5.13
2022-11-29T06:19:54.567Z,5.15
2022-11-29T06:22:27.560Z,5.15
2022-11-29T06:25:15.531Z,5.18
2022-11-29T06:28:00.482Z,5.24
2022-11-29T06:30:34.724Z,5.31
2022-11-29T06:33:28.997Z,5.32
2022-11-29T06:36:14.022Z,5.36
2022-11-29T06:38:41.589Z,5.42
2022-11-29T06:41:14.178Z,5.38
2022-11-29T06:43:41.289Z,5.38
2022-11-29T06:46:27.045Z,5.31
2022-11-29T06:49:02.880Z,5.21
2022-11-29T06:51:29.900Z,5.18
2022-11-29T06:54:24.103Z,5.19
2022-11-29T06:57:24.729Z,5.18
2022-11-29T07:00:03.904Z,5.14
2022-11-29T07:02:51.861Z,5.10
2022-11-29T07:05:21.461Z,5.10
2022-11-29T07:07:48.895Z,5.10
2022-11-29T07:10:18.077Z,5.06
2022-11-29T07:12:46.278Z,5.01
2022-11-29T07:15:19.015Z,4.96
2022-11-29T07:18:19.037Z,5.02
2022-11-29T07:21:31.998Z,5.10
2022-11-29T07:24:47.645Z,5.21
2022-11-29T07:27:53.330Z,5.28
2022-11-29T07:30:24.958Z,5.34
2022-11-29T07:32:59.932Z,5.40
2022-11-29T07:35:56.045Z,5.49
2022-11-29T07:38:54.412Z,5.62
2022-11-29T07:41:25.874Z,5.66
2022-11-29T07:44:26.308Z,5.71
2022-11-29T07:46:53.401Z,5.71
2022-11-29T07:49:20.263Z,5.69
2022-11-29T07:51:47.070Z,5.71
2022-11-29T07:54:17.513Z,5.69
2022-11-29T07:56:44.370Z,5.67
2022-11-29T07:59:12.523Z,5.72
2022-11-29T08:01:40.164Z,5.80
2022-11-29T08:04:07.780Z,5.88
2022-11-29T08:06:35.677Z,5.93
2022-11-29T08:09:03.903Z,6.02
2022-11-29T08:11:30.898Z,6.10
2022-11-29T08:13:58.580Z,6.15
2022-11-29T08:16:25.593Z,6.24
2022-11-29T08:18:55.320Z,6.29
2022-11-29T08:21:22.470Z,6.38
2022-11-29T08:23:50.047Z,6.48
2022-11-29T08:26:19.179Z,6.56
2022-11-29T08:28:46.363Z,6.62
2022-11-29T08:31:14.161Z,6.72
2022-11-29T08:33:43.140Z,6.76
2022-11-29T08:36:12.663Z,6.82
2022-11-29T08:38:39.858Z,6.93
2022-11-29T08:41:09.403Z,7.02
2022-11-29T08:43:36.806Z,7.11
2022-11-29T08:46:03.906Z,7.18
2022-11-29T08:48:31.037Z,7.29
2022-11-29T08:50:57.959Z,7.38
2022-11-29T08:53:43.798Z,7.47
2022-11-29T08:59:04.254Z,7.62
2022-11-29T09:01:31.293Z,7.67
2022-11-29T09:04:03.034Z,7.71
2022-11-29T09:06:38.324Z,7.79
2022-11-29T09:09:05.223Z,7.92
2022-11-29T09:11:34.206Z,7.99
2022-11-29T09:14:04.505Z,8.05
2022-11-29T09:16:34.738Z,8.08
2022-11-29T09:19:01.774Z,8.10
2022-11-29T09:21:30.845Z,8.12
2022-11-29T09:24:00.742Z,8.23
2022-11-29T09:26:30.773Z,8.34
2022-11-29T09:29:02.799Z,8.40
2022-11-29T09:31:31.284Z,8.41
2022-11-29T09:33:58.367Z,8.50
2022-11-29T09:36:28.903Z,8.65
2022-11-29T09:38:57.217Z,8.67
2022-11-29T09:41:35.228Z,8.67
2022-11-29T09:44:20.390Z,8.79
2022-11-29T09:47:18.923Z,9.00
2022-11-29T09:50:04.085Z,9.20
2022-11-29T09:52:51.582Z,9.41
2022-11-29T09:55:30.362Z,9.39
2022-11-29T09:58:01.141Z,9.37
2022-11-29T10:00:28.858Z,9.38
2022-11-29T10:03:33.329Z,9.33
2022-11-29T10:06:07.423Z,9.39
2022-11-29T10:08:43.557Z,9.40
2022-11-29T10:11:19.627Z,9.32
2022-11-29T10:13:52.370Z,9.31
2022-11-29T10:16:28.561Z,9.27
2022-11-29T10:19:10.883Z,9.24
2022-11-29T10:21:43.818Z,9.28
2022-11-29T10:24:14.846Z,9.28
2022-11-29T10:26:43.573Z,9.30
2022-11-29T10:29:16.354Z,9.36
2022-11-29T10:31:49.283Z,9.43
2022-11-29T10:34:20.131Z,9.47
2022-11-29T10:36:50.318Z,9.43
2022-11-29T10:39:24.529Z,9.38
2022-11-29T10:41:55.755Z,9.36
2022-11-29T10:44:23.452Z,9.28
2022-11-29T10:46:50.734Z,9.20
2022-11-29T10:49:19.730Z,9.43
2022-11-29T10:51:46.900Z,9.68
2022-11-29T10:54:13.857Z,9.78
2022-11-29T10:56:42.198Z,9.87
2022-11-29T10:59:20.514Z,10.02
2022-11-29T11:01:47.612Z,10.10
2022-11-29T11:04:37.360Z,10.09
2022-11-29T11:07:06.676Z,10.14
2022-11-29T11:09:40.543Z,10.19
2022-11-29T11:12:19.163Z,10.19
2022-11-29T11:14:47.437Z,10.28
2022-11-29T11:17:32.665Z,10.37
2022-11-29T11:20:18.537Z,10.39
2022-11-29T11:23:02.206Z,10.43
2022-11-29T11:25:35.647Z,10.49
2022-11-29T11:28:49.525Z,10.29
2022-11-29T11:31:43.460Z,10.27
2022-11-29T11:34:27.442Z,10.24
2022-11-29T11:37:14.328Z,10.12
2022-11-29T11:39:47.424Z,10.03
2022-11-29T11:42:38.852Z,10.09
2022-11-29T11:45:23.077Z,10.35
2022-11-29T11:47:54.241Z,10.49
2022-11-29T11:50:32.591Z,10.48
2022-11-29T11:53:17.799Z,10.50
2022-11-29T11:55:55.531Z,10.55
2022-11-29T11:58:25.115Z,10.55
2022-11-29T12:01:05.057Z,10.58
2022-11-29T12:03:57.202Z,10.57
2022-11-29T12:06:48.757Z,10.48
2022-11-29T12:09:34.723Z,10.37
2022-11-29T12:12:15.884Z,10.29
2022-11-29T12:14:57.983Z,10.21
2022-11-29T12:17:49.259Z,10.02
2022-11-29T12:20:32.903Z,9.92
2022-11-29T12:23:27.297Z,9.87
2022-11-29T12:26:34.445Z,9.98
2022-11-29T12:29:02.826Z,10.15
2022-11-29T12:31:39.148Z,10.37
2022-11-29T12:34:26.167Z,10.59
2022-11-29T12:37:02.743Z,10.60
2022-11-29T12:39:30.169Z,10.63
2022-11-29T12:42:21.814Z,10.62
2022-11-29T12:44:54.095Z,10.60
2022-11-29T12:47:37.302Z,10.59
2022-11-29T12:50:05.905Z,10.56
2022-11-29T12:53:00.393Z,10.62
2022-11-29T12:55:35.305Z,10.63
2022-11-29T12:58:18.658Z,10.63
2022-11-29T13:01:08.679Z,10.58
2022-11-29T13:03:50.088Z,10.44
2022-11-29T13:06:39.389Z,10.34
2022-11-29T13:09:43.477Z,10.28
2022-11-29T13:12:42.270Z,10.23
2022-11-29T13:15:12.352Z,10.18
2022-11-29T13:17:56.688Z,10.20
2022-11-29T13:20:37.081Z,10.15
2022-11-29T13:23:18.827Z,10.13
2022-11-29T13:25:50.850Z,10.18
2022-11-29T13:28:35.652Z,10.15
2022-11-29T13:31:07.535Z,10.12
2022-11-29T13:33:49.888Z,10.02
2022-11-29T13:36:37.307Z,10.02
2022-11-29T13:39:22.797Z,10.03
2022-11-29T13:42:01.398Z,10.00
2022-11-29T13:44:31.223Z,9.94
2022-11-29T13:47:07.508Z,9.90
2022-11-29T13:49:53.295Z,9.71
2022-11-29T13:52:26.641Z,9.67
2022-11-29T13:55:29.096Z,9.63
2022-11-29T13:58:19.541Z,9.55
2022-11-29T14:00:46.403Z,9.50
2022-11-29T14:03:23.596Z,9.51
2022-11-29T14:06:04.357Z,9.49
2022-11-29T14:08:55.021Z,9.46
2022-11-29T14:11:25.386Z,9.48
2022-11-29T14:14:05.522Z,9.48
2022-11-29T14:16:47.846Z,9.41
2022-11-29T14:19:32.787Z,9.38
2022-11-29T14:22:03.440Z,9.35
2022-11-29T14:24:36.354Z,9.29
2022-11-29T14:27:06.041Z,9.26
2022-11-29T14:29:54.217Z,9.26
2022-11-29T14:32:26.995Z,9.25
2022-11-29T14:35:09.434Z,9.17
2022-11-29T14:38:04.008Z,9.12
2022-11-29T14:40:42.856Z,9.09
2022-11-29T14:43:35.592Z,9.05
2022-11-29T14:46:26.105Z,9.07
2022-11-29T14:48:55.825Z,9.08
2022-11-29T14:51:28.849Z,9.05
2022-11-29T14:54:05.033Z,9.05
2022-11-29T14:56:32.348Z,9.07
2022-11-29T14:59:36.952Z,9.06
2022-11-29T15:02:27.249Z,9.08
2022-11-29T15:04:57.445Z,9.07
2022-11-29T15:07:29.639Z,9.03
2022-11-29T15:10:01.395Z,9.01
2022-11-29T15:12:39.763Z,9.00
2022-11-29T15:15:51.607Z,9.01
2022-11-29T15:18:27.666Z,9.00
2022-11-29T15:21:00.308Z,8.94
2022-11-29T15:23:27.248Z,8.94
2022-11-29T15:25:59.754Z,8.93
2022-11-29T15:28:29.227Z,8.89
2022-11-29T15:31:02.553Z,8.83
2022-11-29T15:33:29.766Z,8.81
2022-11-29T15:36:05.440Z,8.79
2022-11-29T15:38:45.535Z,8.79
2022-11-29T15:41:20.155Z,8.74
2022-11-29T15:43:52.471Z,8.74
2022-11-29T15:46:30.403Z,8.69
2022-11-29T15:49:33.817Z,8.63
2022-11-29T15:52:08.655Z,8.62
2022-11-29T15:54:40.927Z,8.61
2022-11-29T15:57:19.473Z,8.61
2022-11-29T15:59:57.037Z,8.63
2022-11-29T16:02:30.308Z,8.62
2022-11-29T16:05:08.969Z,8.60
2022-11-29T16:07:37.622Z,8.61
2022-11-29T16:10:12.803Z,8.59
2022-11-29T16:12:56.132Z,8.57
2022-11-29T16:15:31.962Z,8.53
2022-11-29T16:18:13.970Z,8.49
2022-11-29T16:20:40.974Z,8.50
2022-11-29T16:23:07.867Z,8.48
2022-11-29T16:25:48.234Z,8.42
2022-11-29T16:28:15.327Z,8.43
2022-11-29T16:30:42.824Z,8.45
2022-11-29T16:33:19.591Z,8.45
2022-11-29T16:35:46.594Z,8.47
2022-11-29T16:38:20.454Z,8.49
2022-11-29T16:41:07.489Z,8.46
2022-11-29T16:43:43.806Z,8.42
2022-11-29T16:46:19.875Z,8.41
2022-11-29T16:48:47.759Z,8.37
2022-11-29T16:51:23.927Z,8.35
2022-11-29T16:53:52.623Z,8.36
2022-11-29T16:56:24.380Z,8.33
2022-11-29T16:59:26.358Z,8.38
2022-11-29T17:01:48.052Z,8.39
2022-11-29T17:04:24.709Z,8.40
2022-11-29T17:06:56.486Z,8.40
2022-11-29T17:09:27.016Z,8.40
2022-11-29T17:11:55.431Z,8.41
2022-11-29T17:14:22.646Z,8.38
2022-11-29T17:16:49.877Z,8.36
2022-11-29T17:19:17.567Z,8.35
2022-11-29T17:21:45.443Z,8.34
2022-11-29T17:24:15.673Z,8.32
2022-11-29T17:26:43.418Z,8.28
2022-11-29T17:29:13.175Z,8.25
2022-11-29T17:31:41.574Z,8.21
2022-11-29T17:34:08.515Z,8.19
2022-11-29T17:36:35.642Z,8.16
2022-11-29T17:39:04.216Z,8.15
2022-11-29T17:41:32.532Z,8.15
2022-11-29T17:44:00.173Z,8.11
2022-11-29T17:46:44.964Z,8.08
2022-11-29T17:49:11.889Z,8.05
2022-11-29T17:51:51.761Z,8.00
2022-11-29T17:54:21.097Z,7.91
2022-11-29T17:56:48.388Z,7.84
2022-11-29T17:59:15.268Z,7.75
2022-11-29T18:01:42.311Z,7.65
2022-11-29T18:04:09.199Z,7.57
2022-11-29T18:06:38.019Z,7.55
2022-11-29T18:09:07.779Z,7.59
2022-11-29T18:11:45.224Z,7.59
2022-11-29T18:14:19.992Z,7.63
2022-11-29T18:16:47.256Z,7.55
2022-11-29T18:19:17.514Z,7.51
2022-11-29T18:21:45.206Z,7.40
2022-11-29T18:24:12.016Z,7.29
2022-11-29T18:26:39.936Z,7.18
2022-11-29T18:29:07.988Z,7.13
2022-11-29T18:31:37.493Z,7.00
2022-11-29T18:34:13.202Z,6.91
2022-11-29T18:36:43.486Z,6.91
2022-11-29T18:39:14.640Z,6.89
2022-11-29T18:41:44.175Z,6.90
2022-11-29T18:44:13.734Z,6.91
2022-11-29T18:46:43.602Z,6.96
2022-11-29T18:49:13.406Z,6.97
2022-11-29T18:51:42.259Z,6.97
2022-11-29T18:54:09.185Z,6.93
2022-11-29T18:56:37.310Z,6.86
2022-11-29T18:59:11.135Z,6.70
2022-11-29T19:01:43.288Z,6.55
2022-11-29T19:04:13.282Z,6.47
2022-11-29T19:06:40.906Z,6.44
2022-11-29T19:09:11.715Z,6.46
2022-11-29T19:11:39.027Z,6.47
2022-11-29T19:14:11.840Z,6.49
2022-11-29T19:16:44.661Z,6.53
2022-11-29T19:19:11.798Z,6.59
2022-11-29T19:21:40.015Z,6.65
2022-11-29T19:24:13.921Z,6.60
2022-11-29T19:26:44.511Z,6.60
2022-11-29T19:29:12.658Z,6.60
2022-11-29T19:31:39.601Z,6.63
2022-11-29T19:34:07.020Z,6.69
2022-11-29T19:36:33.925Z,6.73
2022-11-29T19:39:02.537Z,6.76
2022-11-29T19:41:32.037Z,6.79
2022-11-29T19:44:01.046Z,6.85
2022-11-29T19:46:34.191Z,6.87
2022-11-29T19:49:02.111Z,6.92
2022-11-29T19:51:30.360Z,6.97
2022-11-29T19:54:00.586Z,6.98
2022-11-29T19:56:28.532Z,6.94
2022-11-29T19:58:55.805Z,7.01
2022-11-29T20:01:28.209Z,7.03
2022-11-29T20:03:55.902Z,7.05
2022-11-29T20:06:22.809Z,7.04
2022-11-29T20:08:49.941Z,7.08
2022-11-29T20:11:19.527Z,7.07
2022-11-29T20:13:52.335Z,7.04
2022-11-29T20:16:19.500Z,7.03
2022-11-29T20:18:51.118Z,7.04
2022-11-29T20:21:25.556Z,7.00
2022-11-29T20:24:13.176Z,6.93
2022-11-29T20:26:41.519Z,6.90
2022-11-29T20:29:09.225Z,6.88
2022-11-29T20:31:39.699Z,6.89
2022-11-29T20:34:13.514Z,6.89
2022-11-29T20:36:49.177Z,6.91
2022-11-29T20:39:57.546Z,6.92
2022-11-29T20:42:43.954Z,6.90
2022-11-29T20:45:12.988Z,6.86
2022-11-29T20:48:15.342Z,6.81
2022-11-29T20:50:45.645Z,6.77
2022-11-29T20:53:35.678Z,6.74
2022-11-29T20:56:04.323Z,6.64
2022-11-29T20:58:31.728Z,6.51
2022-11-29T21:00:59.310Z,6.43
2022-11-29T21:03:28.063Z,6.35
2022-11-29T21:05:56.754Z,6.22
2022-11-29T21:08:26.530Z,6.13
2022-11-29T21:10:54.035Z,6.05
2022-11-29T21:13:22.692Z,5.98
2022-11-29T21:15:50.566Z,5.88
2022-11-29T21:18:22.467Z,5.83
2022-11-29T21:21:03.034Z,5.81
2022-11-29T21:24:01.148Z,5.75
2022-11-29T21:26:37.237Z,5.66
2022-11-29T21:29:17.063Z,5.56
2022-11-29T21:31:45.323Z,5.49
2022-11-29T21:34:12.350Z,5.33
2022-11-29T21:36:40.171Z,5.19
2022-11-29T21:39:11.130Z,4.98
2022-11-29T21:41:37.998Z,4.83
2022-11-29T21:44:07.163Z,4.76
2022-11-29T21:46:35.331Z,4.72
2022-11-29T21:49:02.267Z,4.63
2022-11-29T21:51:29.181Z,4.60
2022-11-29T21:53:56.067Z,4.59
2022-11-29T21:56:22.934Z,4.52
2022-11-29T21:58:49.851Z,4.50
2022-11-29T22:01:19.159Z,4.45
2022-11-29T22:03:46.513Z,4.42
2022-11-29T22:06:16.583Z,4.38
2022-11-29T22:08:43.455Z,4.34
2022-11-29T22:11:12.831Z,4.33
2022-11-29T22:14:01.236Z,4.33
2022-11-29T22:16:29.465Z,4.29
2022-11-29T22:18:56.273Z,4.26
2022-11-29T22:21:23.818Z,4.18
2022-11-29T22:23:52.507Z,4.14
2022-11-29T22:26:19.464Z,4.11
2022-11-29T22:28:46.597Z,4.07
2022-11-29T22:31:13.481Z,4.08
2022-11-29T22:33:40.681Z,4.09
2022-11-29T22:36:12.623Z,4.09
2022-11-29T22:38:40.041Z,4.08
2022-11-29T22:41:10.136Z,4.05
2022-11-29T22:43:38.097Z,3.99
2022-11-29T22:46:05.039Z,3.97
2022-11-29T22:48:38.270Z,3.93
2022-11-29T22:51:07.153Z,3.93
2022-11-29T22:53:37.896Z,3.87
2022-11-29T22:56:07.342Z,3.77
2022-11-29T22:58:34.953Z,3.70
2022-11-29T23:01:07.743Z,3.65
2022-11-29T23:03:39.514Z,3.58
2022-11-29T23:06:12.045Z,3.53
2022-11-29T23:08:40.079Z,3.49
2022-11-29T23:11:10.313Z,3.48
2022-11-29T23:13:39.283Z,3.40
2022-11-29T23:16:08.953Z,3.33
2022-11-29T23:18:36.829Z,3.31
2022-11-29T23:21:06.878Z,3.21
2022-11-29T23:23:34.822Z,3.13
2022-11-29T23:26:02.312Z,3.08
2022-11-29T23:28:29.963Z,2.98
2022-11-29T23:30:59.041Z,2.92
2022-11-29T23:33:26.871Z,2.93
2022-11-29T23:36:03.053Z,2.85
2022-11-29T23:38:30.343Z,2.83
2022-11-29T23:40:57.513Z,2.79
2022-11-29T23:43:24.438Z,2.82
2022-11-29T23:45:51.382Z,2.84
2022-11-29T23:48:18.166Z,2.90
2022-11-29T23:50:46.363Z,2.97
2022-11-29T23:53:14.770Z,3.03
2022-11-29T23:55:42.360Z,3.09
2022-11-29T23:58:10.524Z,3.06
